^^
Meteo Knjazevac Station Historical Data
Daily Summary for September 26, 2022 Units:  Both    English   Metric
Daily Weekly Monthly Yearly Custom
  High: Low: Average:
Temperature: 70.5 °F /  21.4 °C 56.3 °F /  13.5 °C 61.5 °F /  16.4 °C
Dew Point: 61.5 °F /  16.4 °C 53.1 °F /  11.7 °C 58.1 °F /  14.5 °C
Humidity: 99% 68.8% 89%
Wind Speed: 11.6mph /  18.7km/h - 4.4mph /  7.1km/h
Wind Gust: 13mph /  20.9km/h - -
Wind- - SW
Pressure: 30.02 in /  1016.5 hPa 29.88 in /  1011.7 hPa -
Precipitation: 0.48 in /  12.19 mm    
Historical Graphs
 
 
Tabular Data for September 26, 2022
Time Temperature Dew Point Pressure Wind Wind Speed Wind Gust Humidity Rainfall Rate (Hourly) solar Conditions
00:04 63.5 °F /  17.5 °C 53.1 °F /  11.7 °C 30.01in /  1016.1hPa South 4.1mph /  6.6km/h 7mph /  11.3km/h 68.8% 0.00in /  0mm 0 W/m2
00:09 63.5 °F /  17.5 °C 53.3 °F /  11.8 °C 30.01in /  1016.1hPa SSW 1.6mph /  2.6km/h 5mph /  8km/h 69.5% 0.00in /  0mm 0 W/m2
00:14 63.4 °F /  17.4 °C 53.5 °F /  11.9 °C 30.01in /  1016.1hPa SW 1.4mph /  2.3km/h 2mph /  3.2km/h 70% 0.00in /  0mm 0 W/m2
00:19 63.2 °F /  17.3 °C 53.9 °F /  12.2 °C 30.01in /  1016.1hPa WSW 1.8mph /  2.9km/h 2mph /  3.2km/h 71.7% 0.00in /  0mm 0 W/m2
00:24 63 °F /  17.2 °C 53.9 °F /  12.2 °C 30.01in /  1016.1hPa West 1.7mph /  2.7km/h 2mph /  3.2km/h 72.1% 0.00in /  0mm 0 W/m2
00:29 62.8 °F /  17.1 °C 54 °F /  12.2 °C 30.01in /  1016.1hPa WNW 2mph /  3.2km/h 2mph /  3.2km/h 73% 0.00in /  0mm 0 W/m2
00:34 62.6 °F /  17 °C 53.8 °F /  12.1 °C 30.01in /  1016.1hPa WNW 1.5mph /  2.4km/h 2mph /  3.2km/h 73% 0.00in /  0mm 0 W/m2
00:39 62.4 °F /  16.9 °C 53.8 °F /  12.1 °C 30.01in /  1016.1hPa WNW 1.5mph /  2.4km/h 2mph /  3.2km/h 73.5% 0.00in /  0mm 0 W/m2
00:44 62.3 °F /  16.8 °C 53.7 °F /  12.1 °C 30.01in /  1016.1hPa West 3mph /  4.8km/h 3mph /  4.8km/h 73.3% 0.00in /  0mm 0 W/m2
00:49 62.2 °F /  16.8 °C 53.5 °F /  11.9 °C 30.01in /  1016.1hPa West 4mph /  6.4km/h 5mph /  8km/h 73% 0.00in /  0mm 0 W/m2
00:54 62.2 °F /  16.8 °C 53.4 °F /  11.9 °C 30.01in /  1016.1hPa WSW 3.7mph /  6km/h 5mph /  8km/h 72.8% 0.00in /  0mm 0 W/m2
00:59 62.5 °F /  16.9 °C 53.3 °F /  11.8 °C 30.01in /  1016.1hPa WSW 3.6mph /  5.8km/h 4mph /  6.4km/h 72% 0.00in /  0mm 0 W/m2
01:04 62.6 °F /  17 °C 53.8 °F /  12.1 °C 30.02in /  1016.5hPa SW 3.7mph /  6km/h 5mph /  8km/h 72.8% 0.00in /  0mm 0 W/m2
01:09 62.5 °F /  16.9 °C 53.9 °F /  12.2 °C 30.02in /  1016.5hPa SW 4.4mph /  7.1km/h 5mph /  8km/h 73.3% 0.00in /  0mm 0 W/m2
01:14 62.6 °F /  17 °C 53.8 °F /  12.1 °C 30.02in /  1016.5hPa SSW 5.2mph /  8.4km/h 5mph /  8km/h 73% 0.00in /  0mm 0 W/m2
01:19 62.6 °F /  17 °C 53.7 °F /  12.1 °C 30.02in /  1016.5hPa SSW 6.2mph /  10km/h 7mph /  11.3km/h 72.8% 0.00in /  0mm 0 W/m2
01:24 62.5 °F /  16.9 °C 53.9 °F /  12.2 °C 30.02in /  1016.5hPa SSW 6.1mph /  9.8km/h 7mph /  11.3km/h 73.4% 0.00in /  0mm 0 W/m2
01:29 62.3 °F /  16.8 °C 53.9 °F /  12.2 °C 30.02in /  1016.5hPa SSW 5.3mph /  8.5km/h 7mph /  11.3km/h 74.1% 0.00in /  0mm 0 W/m2
01:34 62.1 °F /  16.7 °C 54.2 °F /  12.3 °C 30.02in /  1016.5hPa SSW 5.3mph /  8.5km/h 6mph /  9.7km/h 75.4% 0.00in /  0mm 0 W/m2
01:39 61.9 °F /  16.6 °C 54.3 °F /  12.4 °C 30.02in /  1016.5hPa SSW 4.3mph /  6.9km/h 6mph /  9.7km/h 76.3% 0.00in /  0mm 0 W/m2
01:44 61.9 °F /  16.6 °C 54.5 °F /  12.5 °C 30.02in /  1016.5hPa SSW 4.4mph /  7.1km/h 5mph /  8km/h 76.6% 0.00in /  0mm 0 W/m2
01:49 61.7 °F /  16.5 °C 54.7 °F /  12.6 °C 30.02in /  1016.5hPa SW 5.5mph /  8.9km/h 5mph /  8km/h 77.7% 0.00in /  0mm 0 W/m2
01:54 61.5 °F /  16.4 °C 54.8 °F /  12.7 °C 30.01in /  1016.1hPa SW 4.9mph /  7.9km/h 6mph /  9.7km/h 78.8% 0.00in /  0mm 0 W/m2
01:59 61.4 °F /  16.3 °C 55 °F /  12.8 °C 30.01in /  1016.1hPa SW 5.7mph /  9.2km/h 6mph /  9.7km/h 79.5% 0.00in /  0mm 0 W/m2
02:04 61.2 °F /  16.2 °C 55.1 °F /  12.8 °C 30.01in /  1016.1hPa SW 4.5mph /  7.2km/h 6mph /  9.7km/h 80.3% 0.01in /  0.25mm 0 W/m2
02:09 61 °F /  16.1 °C 55.6 °F /  13.1 °C 30.01in /  1016.1hPa SW 4.9mph /  7.9km/h 5mph /  8km/h 82.5% 0.01in /  0.25mm 0 W/m2
02:14 60.6 °F /  15.9 °C 55.7 °F /  13.2 °C 30.01in /  1016.1hPa SSW 4.8mph /  7.7km/h 6mph /  9.7km/h 83.9% 0.02in /  0.51mm 0 W/m2
02:19 60.3 °F /  15.7 °C 55.6 °F /  13.1 °C 30.01in /  1016.1hPa South 5mph /  8km/h 7mph /  11.3km/h 84.3% 0.02in /  0.51mm 0 W/m2
02:24 60.2 °F /  15.7 °C 55.6 °F /  13.1 °C 30.01in /  1016.1hPa SSE 3.9mph /  6.3km/h 8mph /  12.9km/h 84.8% 0.02in /  0.51mm 0 W/m2
02:29 59.9 °F /  15.5 °C 55.7 °F /  13.2 °C 30.01in /  1016.1hPa SE 3.7mph /  6km/h 5mph /  8km/h 85.9% 0.02in /  0.51mm 0 W/m2
02:34 59.5 °F /  15.3 °C 55.3 °F /  12.9 °C 30.01in /  1016.1hPa East 2.2mph /  3.5km/h 5mph /  8km/h 86% 0.02in /  0.51mm 0 W/m2
02:39 59.5 °F /  15.3 °C 55.6 °F /  13.1 °C 30.01in /  1016.1hPa ENE 1.9mph /  3.1km/h 5mph /  8km/h 86.8% 0.02in /  0.51mm 0 W/m2
02:44 59.4 °F /  15.2 °C 55.8 °F /  13.2 °C 30.01in /  1016.1hPa NE 1.9mph /  3.1km/h 3mph /  4.8km/h 87.7% 0.02in /  0.51mm 0 W/m2
02:49 59.2 °F /  15.1 °C 55.8 °F /  13.2 °C 30.01in /  1016.1hPa East 4.5mph /  7.2km/h 4.5mph /  7.2km/h 88.8% 0.02in /  0.51mm 0 W/m2
02:54 59.1 °F /  15.1 °C 55.7 °F /  13.2 °C 30.01in /  1016.1hPa ENE 4.3mph /  6.9km/h 6mph /  9.7km/h 88.7% 0.02in /  0.51mm 0 W/m2
02:59 58.8 °F /  14.9 °C 55.6 °F /  13.1 °C 30.01in /  1016.1hPa NE 4.4mph /  7.1km/h 5mph /  8km/h 89% 0.02in /  0.51mm 0 W/m2
03:04 58.7 °F /  14.8 °C 55.5 °F /  13.1 °C 30.00in /  1015.8hPa NE 4.1mph /  6.6km/h 5mph /  8km/h 89.1% 0.02in /  0.51mm 0 W/m2
03:09 58.5 °F /  14.7 °C 55.6 °F /  13.1 °C 30.01in /  1016.1hPa NE 1.3mph /  2.1km/h 5mph /  8km/h 90% 0.02in /  0.51mm 0 W/m2
03:14 58.5 °F /  14.7 °C 55.5 °F /  13.1 °C 30.00in /  1015.8hPa NNE 2.1mph /  3.4km/h 2.2mph /  3.5km/h 90% 0.01in /  0.25mm 0 W/m2
03:19 58.3 °F /  14.6 °C 55.5 °F /  13.1 °C 30.00in /  1015.8hPa NNE 1.6mph /  2.6km/h 3mph /  4.8km/h 90.3% 0.01in /  0.25mm 0 W/m2
03:24 58.2 °F /  14.6 °C 55.6 °F /  13.1 °C 30.00in /  1015.8hPa NNE 0.9mph /  1.4km/h 2mph /  3.2km/h 91% 0.01in /  0.25mm 0 W/m2
03:29 58 °F /  14.4 °C 55.6 °F /  13.1 °C 30.00in /  1015.8hPa North 0.2mph /  0.3km/h 1mph /  1.6km/h 91.6% 0.01in /  0.25mm 0 W/m2
03:34 57.9 °F /  14.4 °C 55.9 °F /  13.3 °C 30.00in /  1015.8hPa Calm     93% 0.01in /  0.25mm 0 W/m2
03:39 57.8 °F /  14.3 °C 55.9 °F /  13.3 °C 30.00in /  1015.8hPa NNW 0.7mph /  1.1km/h 0.9mph /  1.4km/h 93.6% 0.02in /  0.51mm 0 W/m2
03:44 57.6 °F /  14.2 °C 55.6 °F /  13.1 °C 30.00in /  1015.8hPa NNW 0.8mph /  1.3km/h 2mph /  3.2km/h 93% 0.01in /  0.25mm 0 W/m2
03:49 57.6 °F /  14.2 °C 55.9 °F /  13.3 °C 30.00in /  1015.8hPa North 0.5mph /  0.8km/h 2mph /  3.2km/h 94.3% 0.01in /  0.25mm 0 W/m2
03:54 57.4 °F /  14.1 °C 56 °F /  13.3 °C 30.00in /  1015.8hPa NW 2.4mph /  3.9km/h 2mph /  3.2km/h 95% 0.01in /  0.25mm 0 W/m2
03:59 57.2 °F /  14 °C 55.9 °F /  13.3 °C 30.00in /  1015.8hPa SW 3.8mph /  6.1km/h 4mph /  6.4km/h 95.4% 0.01in /  0.25mm 0 W/m2
04:04 57 °F /  13.9 °C 55.9 °F /  13.3 °C 29.99in /  1015.5hPa South 3.9mph /  6.3km/h 6mph /  9.7km/h 96% 0.01in /  0.25mm 0 W/m2
04:09 56.8 °F /  13.8 °C 55.8 °F /  13.2 °C 29.99in /  1015.5hPa SSW 2.1mph /  3.4km/h 5mph /  8km/h 96.3% 0.01in /  0.25mm 0 W/m2
04:14 56.8 °F /  13.8 °C 56.3 °F /  13.5 °C 30.00in /  1015.8hPa SW 0.2mph /  0.3km/h 3mph /  4.8km/h 98% 0.01in /  0.25mm 0 W/m2
04:19 56.8 °F /  13.8 °C 56.2 °F /  13.4 °C 30.00in /  1015.8hPa Calm     98% 0.01in /  0.25mm 0 W/m2
04:24 56.7 °F /  13.7 °C 56.2 °F /  13.4 °C 30.00in /  1015.8hPa SW 1.2mph /  1.9km/h 1.1mph /  1.8km/h 98.2% 0.01in /  0.25mm 0 W/m2
04:29 56.7 °F /  13.7 °C 56.3 °F /  13.5 °C 30.00in /  1015.8hPa South 2mph /  3.2km/h 2mph /  3.2km/h 98.5% 0.01in /  0.25mm 0 W/m2
04:34 56.7 °F /  13.7 °C 56.4 °F /  13.6 °C 30.00in /  1015.8hPa ESE 1.8mph /  2.9km/h 2mph /  3.2km/h 99% 0.01in /  0.25mm 0 W/m2
04:39 56.7 °F /  13.7 °C 56.4 °F /  13.6 °C 29.99in /  1015.5hPa West 1.4mph /  2.3km/h 2mph /  3.2km/h 99% 0.00in /  0mm 0 W/m2
04:44 56.5 °F /  13.6 °C 56.2 °F /  13.4 °C 29.99in /  1015.5hPa SSW 1.9mph /  3.1km/h 3mph /  4.8km/h 99% 0.01in /  0.25mm 0 W/m2
04:49 56.5 °F /  13.6 °C 56.2 °F /  13.4 °C 29.99in /  1015.5hPa SW 2.2mph /  3.5km/h 3mph /  4.8km/h 99% 0.01in /  0.25mm 0 W/m2
04:54 56.3 °F /  13.5 °C 56 °F /  13.3 °C 29.99in /  1015.5hPa NW 1mph /  1.6km/h 4mph /  6.4km/h 99% 0.01in /  0.25mm 0 W/m2
04:59 56.5 °F /  13.6 °C 56.2 °F /  13.4 °C 29.99in /  1015.5hPa NNW 2.5mph /  4km/h 2mph /  3.2km/h 99% 0.01in /  0.25mm 0 W/m2
05:04 56.4 °F /  13.6 °C 56.1 °F /  13.4 °C 29.99in /  1015.5hPa NE 2.3mph /  3.7km/h 3mph /  4.8km/h 99% 0.02in /  0.51mm 0 W/m2
05:09 56.3 °F /  13.5 °C 56.1 °F /  13.4 °C 29.99in /  1015.5hPa East 2.6mph /  4.2km/h 3mph /  4.8km/h 99% 0.02in /  0.51mm 0 W/m2
05:14 56.3 °F /  13.5 °C 56 °F /  13.3 °C 29.99in /  1015.5hPa South 2.3mph /  3.7km/h 3mph /  4.8km/h 99% 0.02in /  0.51mm 0 W/m2
05:19 56.3 °F /  13.5 °C 56 °F /  13.3 °C 29.99in /  1015.5hPa SW 2.1mph /  3.4km/h 3mph /  4.8km/h 99% 0.01in /  0.25mm 0 W/m2
05:24 56.3 °F /  13.5 °C 56 °F /  13.3 °C 29.99in /  1015.5hPa SSE 1.9mph /  3.1km/h 3mph /  4.8km/h 99% 0.01in /  0.25mm 0 W/m2
05:29 56.3 °F /  13.5 °C 56 °F /  13.3 °C 29.99in /  1015.5hPa ENE 2.1mph /  3.4km/h 2mph /  3.2km/h 99% 0.01in /  0.25mm 0 W/m2
05:34 56.3 °F /  13.5 °C 55.8 °F /  13.2 °C 29.99in /  1015.5hPa ENE 1.6mph /  2.6km/h 2mph /  3.2km/h 98.5% 0.01in /  0.25mm 0 W/m2
05:39 56.3 °F /  13.5 °C 55.7 °F /  13.2 °C 29.99in /  1015.5hPa ENE 2.2mph /  3.5km/h 3mph /  4.8km/h 98% 0.01in /  0.25mm 0 W/m2
05:44 56.3 °F /  13.5 °C 55.9 °F /  13.3 °C 29.99in /  1015.5hPa SE 2.3mph /  3.7km/h 3mph /  4.8km/h 98.7% 0.01in /  0.25mm 0 W/m2
05:49 56.3 °F /  13.5 °C 55.8 °F /  13.2 °C 29.99in /  1015.5hPa SSE 1.1mph /  1.8km/h 2mph /  3.2km/h 98.4% 0.01in /  0.25mm 0 W/m2
05:54 56.3 °F /  13.5 °C 55.9 °F /  13.3 °C 29.99in /  1015.5hPa SW 1.2mph /  1.9km/h 2mph /  3.2km/h 98.8% 0.01in /  0.25mm 0 W/m2
05:59 56.3 °F /  13.5 °C 56 °F /  13.3 °C 29.99in /  1015.5hPa SW 0.7mph /  1.1km/h 2mph /  3.2km/h 99% 0.00in /  0mm 0 W/m2
06:04 56.3 °F /  13.5 °C 55.9 °F /  13.3 °C 29.99in /  1015.5hPa West 1.8mph /  2.9km/h 1.1mph /  1.8km/h 98.8% 0.00in /  0mm 0 W/m2
06:09 56.4 °F /  13.6 °C 56 °F /  13.3 °C 29.99in /  1015.5hPa South 3.7mph /  6km/h 2.9mph /  4.7km/h 98.6% 0.00in /  0mm 0 W/m2
06:14 56.6 °F /  13.7 °C 56.1 °F /  13.4 °C 29.99in /  1015.5hPa SSE 4.9mph /  7.9km/h 5mph /  8km/h 98.2% 0.00in /  0mm 0 W/m2
06:19 56.9 °F /  13.8 °C 56.4 °F /  13.6 °C 29.99in /  1015.5hPa SSE 4.5mph /  7.2km/h 6mph /  9.7km/h 98% 0.00in /  0mm 0 W/m2
06:24 56.9 °F /  13.8 °C 56.4 °F /  13.6 °C 29.99in /  1015.5hPa South 4.4mph /  7.1km/h 5mph /  8km/h 98% 0.01in /  0.25mm 0 W/m2
06:29 56.7 °F /  13.7 °C 56.2 °F /  13.4 °C 29.99in /  1015.5hPa South 4.2mph /  6.8km/h 6mph /  9.7km/h 98% 0.01in /  0.25mm 1 W/m2
06:34 56.7 °F /  13.7 °C 56.1 °F /  13.4 °C 29.99in /  1015.5hPa South 2.8mph /  4.5km/h 5mph /  8km/h 98% 0.01in /  0.25mm 2 W/m2
06:39 56.5 °F /  13.6 °C 55.7 °F /  13.2 °C 29.99in /  1015.5hPa SW 3.7mph /  6km/h 3mph /  4.8km/h 97.3% 0.01in /  0.25mm 3 W/m2
06:44 56.5 °F /  13.6 °C 55.5 °F /  13.1 °C 29.99in /  1015.5hPa SW 4.5mph /  7.2km/h 5mph /  8km/h 96.4% 0.01in /  0.25mm 4 W/m2
06:49 56.7 °F /  13.7 °C 55.5 °F /  13.1 °C 29.99in /  1015.5hPa SSW 3.5mph /  5.6km/h 5mph /  8km/h 96% 0.01in /  0.25mm 7 W/m2
06:54 56.7 °F /  13.7 °C 55.5 °F /  13.1 °C 29.99in /  1015.5hPa SSW 3.3mph /  5.3km/h 4mph /  6.4km/h 96% 0.01in /  0.25mm 9 W/m2
06:59 56.7 °F /  13.7 °C 55.5 °F /  13.1 °C 29.99in /  1015.5hPa SSW 4.5mph /  7.2km/h 3.4mph /  5.5km/h 96% 0.01in /  0.25mm 14 W/m2
07:04 56.6 °F /  13.7 °C 55.5 °F /  13.1 °C 29.99in /  1015.5hPa SSE 3.8mph /  6.1km/h 5mph /  8km/h 96.3% 0.01in /  0.25mm 15 W/m2
07:09 56.7 °F /  13.7 °C 55.7 °F /  13.2 °C 29.98in /  1015.1hPa SE 3.4mph /  5.5km/h 4mph /  6.4km/h 96.6% 0.01in /  0.25mm 22 W/m2
07:14 56.8 °F /  13.8 °C 56.2 °F /  13.4 °C 29.98in /  1015.1hPa East 3mph /  4.8km/h 4mph /  6.4km/h 98% 0.01in /  0.25mm 24 W/m2
07:19 56.8 °F /  13.8 °C 56.3 °F /  13.5 °C 29.98in /  1015.1hPa ENE 2.7mph /  4.3km/h 3mph /  4.8km/h 98% 0.01in /  0.25mm 28 W/m2
07:24 56.8 °F /  13.8 °C 56.3 °F /  13.5 °C 29.97in /  1014.8hPa NE 2.5mph /  4km/h 3mph /  4.8km/h 98% 0.01in /  0.25mm 28 W/m2
07:29 56.9 °F /  13.8 °C 56.4 °F /  13.6 °C 29.97in /  1014.8hPa NE 1.1mph /  1.8km/h 3mph /  4.8km/h 98% 0.00in /  0mm 34 W/m2
07:34 57 °F /  13.9 °C 56.5 °F /  13.6 °C 29.97in /  1014.8hPa NNE 0.9mph /  1.4km/h 1.3mph /  2.1km/h 98% 0.00in /  0mm 53 W/m2
07:39 57 °F /  13.9 °C 56.5 °F /  13.6 °C 29.98in /  1015.1hPa NNW 0.9mph /  1.4km/h 2mph /  3.2km/h 98% 0.00in /  0mm 64 W/m2
07:44 57 °F /  13.9 °C 56.5 °F /  13.6 °C 29.98in /  1015.1hPa West 1.7mph /  2.7km/h 2mph /  3.2km/h 98% 0.00in /  0mm 63 W/m2
07:49 57.1 °F /  13.9 °C 56.6 °F /  13.7 °C 29.97in /  1014.8hPa West 0.9mph /  1.4km/h 2mph /  3.2km/h 98% 0.00in /  0mm 72 W/m2
07:54 57.3 °F /  14.1 °C 56.7 °F /  13.7 °C 29.97in /  1014.8hPa North 2.1mph /  3.4km/h 2mph /  3.2km/h 98% 0.00in /  0mm 71 W/m2
07:59 57.4 °F /  14.1 °C 56.9 °F /  13.8 °C 29.97in /  1014.8hPa SSW 2.1mph /  3.4km/h 2mph /  3.2km/h 98.2% 0.00in /  0mm 64 W/m2
08:04 57.4 °F /  14.1 °C 56.8 °F /  13.8 °C 29.97in /  1014.8hPa SW 1.1mph /  1.8km/h 2mph /  3.2km/h 98% 0.00in /  0mm 56 W/m2
08:09 57.4 °F /  14.1 °C 56.8 °F /  13.8 °C 29.97in /  1014.8hPa Calm   2mph /  3.2km/h 98% 0.00in /  0mm 71 W/m2
08:14 57.5 °F /  14.2 °C 56.9 °F /  13.8 °C 29.97in /  1014.8hPa Calm     98% 0.00in /  0mm 92 W/m2
08:19 57.6 °F /  14.2 °C 57 °F /  13.9 °C 29.97in /  1014.8hPa North 0.7mph /  1.1km/h 0.2mph /  0.3km/h 98% 0.00in /  0mm 101 W/m2
08:24 57.7 °F /  14.3 °C 57.1 °F /  13.9 °C 29.97in /  1014.8hPa NNW 1mph /  1.6km/h 1mph /  1.6km/h 98% 0.00in /  0mm 93 W/m2
08:29 57.8 °F /  14.3 °C 56.8 °F /  13.8 °C 29.96in /  1014.4hPa West 0.9mph /  1.4km/h 1mph /  1.6km/h 96.4% 0.00in /  0mm 97 W/m2
08:34 58 °F /  14.4 °C 56.9 °F /  13.8 °C 29.96in /  1014.4hPa WSW 1.4mph /  2.3km/h 2mph /  3.2km/h 96% 0.00in /  0mm 97 W/m2
08:39 58.2 °F /  14.6 °C 57 °F /  13.9 °C 29.96in /  1014.4hPa WSW 2.1mph /  3.4km/h 1.6mph /  2.6km/h 96% 0.00in /  0mm 129 W/m2
08:44 58.3 °F /  14.6 °C 57.7 °F /  14.3 °C 29.96in /  1014.4hPa West 1.6mph /  2.6km/h 2mph /  3.2km/h 97.8% 0.00in /  0mm 139 W/m2
08:49 58.5 °F /  14.7 °C 57.9 °F /  14.4 °C 29.97in /  1014.8hPa West 3.4mph /  5.5km/h 3mph /  4.8km/h 98% 0.00in /  0mm 143 W/m2
08:54 58.6 °F /  14.8 °C 57.9 °F /  14.4 °C 29.97in /  1014.8hPa WNW 3mph /  4.8km/h 5mph /  8km/h 97.6% 0.00in /  0mm 146 W/m2
08:59 58.7 °F /  14.8 °C 57.6 °F /  14.2 °C 29.96in /  1014.4hPa WNW 0.6mph /  1km/h 3mph /  4.8km/h 96% 0.00in /  0mm 145 W/m2
09:04 58.9 °F /  14.9 °C 57.8 °F /  14.3 °C 29.97in /  1014.8hPa WNW 1.2mph /  1.9km/h 1.1mph /  1.8km/h 96% 0.00in /  0mm 134 W/m2
09:09 59.2 °F /  15.1 °C 58 °F /  14.4 °C 29.97in /  1014.8hPa West 2.7mph /  4.3km/h 2.2mph /  3.5km/h 96% 0.00in /  0mm 111 W/m2
09:14 59.3 °F /  15.2 °C 58.3 °F /  14.6 °C 29.97in /  1014.8hPa West 2.6mph /  4.2km/h 3mph /  4.8km/h 96.5% 0.00in /  0mm 130 W/m2
09:19 59.4 °F /  15.2 °C 58.1 °F /  14.5 °C 29.97in /  1014.8hPa NW 1.5mph /  2.4km/h 3mph /  4.8km/h 95.5% 0.00in /  0mm 130 W/m2
09:24 59.5 °F /  15.3 °C 58.1 °F /  14.5 °C 29.97in /  1014.8hPa NNW 0.7mph /  1.1km/h 2mph /  3.2km/h 95.1% 0.00in /  0mm 126 W/m2
09:29 59.6 °F /  15.3 °C 58 °F /  14.4 °C 29.97in /  1014.8hPa WNW 0.3mph /  0.5km/h 1mph /  1.6km/h 94.3% 0.00in /  0mm 151 W/m2
09:34 60 °F /  15.6 °C 58.5 °F /  14.7 °C 29.97in /  1014.8hPa West 1.3mph /  2.1km/h 1.3mph /  2.1km/h 95% 0.00in /  0mm 169 W/m2
09:39 60.2 °F /  15.7 °C 58.7 °F /  14.8 °C 29.97in /  1014.8hPa WSW 1.4mph /  2.3km/h 2mph /  3.2km/h 94.8% 0.00in /  0mm 183 W/m2
09:44 60.5 °F /  15.8 °C 59 °F /  15 °C 29.96in /  1014.4hPa SW 1.3mph /  2.1km/h 1.1mph /  1.8km/h 95% 0.00in /  0mm 183 W/m2
09:49 60.7 °F /  15.9 °C 59.1 °F /  15.1 °C 29.96in /  1014.4hPa SW 2.2mph /  3.5km/h 2mph /  3.2km/h 94.3% 0.00in /  0mm 158 W/m2
09:54 60.9 °F /  16.1 °C 58.9 °F /  14.9 °C 29.96in /  1014.4hPa SSW 1.3mph /  2.1km/h 2mph /  3.2km/h 93.3% 0.00in /  0mm 183 W/m2
09:59 61.1 °F /  16.2 °C 58.9 °F /  14.9 °C 29.96in /  1014.4hPa South 2.1mph /  3.4km/h 2mph /  3.2km/h 92.6% 0.00in /  0mm 180 W/m2
10:04 61.3 °F /  16.3 °C 58.9 °F /  14.9 °C 29.96in /  1014.4hPa SW 1.6mph /  2.6km/h 3mph /  4.8km/h 92% 0.00in /  0mm 157 W/m2
10:09 61.4 °F /  16.3 °C 58.8 °F /  14.9 °C 29.96in /  1014.4hPa WNW 1.4mph /  2.3km/h 2mph /  3.2km/h 91% 0.00in /  0mm 170 W/m2
10:14 61.6 °F /  16.4 °C 59 °F /  15 °C 29.96in /  1014.4hPa WNW 2mph /  3.2km/h 2mph /  3.2km/h 91% 0.00in /  0mm 178 W/m2
10:19 61.8 °F /  16.6 °C 58.9 °F /  14.9 °C 29.96in /  1014.4hPa West 1.4mph /  2.3km/h 2mph /  3.2km/h 90.2% 0.00in /  0mm 187 W/m2
10:24 62.1 °F /  16.7 °C 59.2 °F /  15.1 °C 29.96in /  1014.4hPa West 2.3mph /  3.7km/h 2mph /  3.2km/h 90.2% 0.00in /  0mm 198 W/m2
10:29 62.4 °F /  16.9 °C 59.5 °F /  15.3 °C 29.95in /  1014.1hPa West 2.2mph /  3.5km/h 2mph /  3.2km/h 90% 0.00in /  0mm 219 W/m2
10:34 62.8 °F /  17.1 °C 59.3 °F /  15.2 °C 29.95in /  1014.1hPa West 3.3mph /  5.3km/h 3mph /  4.8km/h 88.5% 0.00in /  0mm 224 W/m2
10:39 63 °F /  17.2 °C 59.3 °F /  15.2 °C 29.95in /  1014.1hPa West 3.4mph /  5.5km/h 3mph /  4.8km/h 88% 0.00in /  0mm 225 W/m2
10:44 63.2 °F /  17.3 °C 59.2 °F /  15.1 °C 29.95in /  1014.1hPa West 3.7mph /  6km/h 3mph /  4.8km/h 86.9% 0.00in /  0mm 227 W/m2
10:49 63.4 °F /  17.4 °C 59.7 °F /  15.4 °C 29.95in /  1014.1hPa WSW 3.4mph /  5.5km/h 5mph /  8km/h 87.5% 0.00in /  0mm 243 W/m2
10:54 63.8 °F /  17.7 °C 59.8 °F /  15.4 °C 29.95in /  1014.1hPa WSW 3.1mph /  5km/h 4mph /  6.4km/h 86.6% 0.00in /  0mm 266 W/m2
10:59 64.2 °F /  17.9 °C 59.9 °F /  15.5 °C 29.95in /  1014.1hPa WSW 3.9mph /  6.3km/h 4mph /  6.4km/h 85.8% 0.00in /  0mm 307 W/m2
11:04 64.7 °F /  18.2 °C 59.9 °F /  15.5 °C 29.95in /  1014.1hPa SW 4.9mph /  7.9km/h 5mph /  8km/h 84.6% 0.00in /  0mm 323 W/m2
11:09 65 °F /  18.3 °C 60 °F /  15.6 °C 29.95in /  1014.1hPa SW 5mph /  8km/h 6mph /  9.7km/h 83.6% 0.00in /  0mm 315 W/m2
11:14 65.5 °F /  18.6 °C 60.4 °F /  15.8 °C 29.95in /  1014.1hPa SW 4.6mph /  7.4km/h 6mph /  9.7km/h 83.8% 0.00in /  0mm 324 W/m2
11:19 65.8 °F /  18.8 °C 60.2 °F /  15.7 °C 29.95in /  1014.1hPa SW 5mph /  8km/h 6mph /  9.7km/h 82.2% 0.00in /  0mm 314 W/m2
11:24 66.1 °F /  18.9 °C 60.2 °F /  15.7 °C 29.95in /  1014.1hPa SW 5.6mph /  9km/h 6mph /  9.7km/h 81.2% 0.00in /  0mm 268 W/m2
11:29 66.2 °F /  19 °C 60.2 °F /  15.7 °C 29.95in /  1014.1hPa SW 5mph /  8km/h 6mph /  9.7km/h 81% 0.00in /  0mm 203 W/m2
11:34 66.3 °F /  19.1 °C 60.4 °F /  15.8 °C 29.95in /  1014.1hPa SW 4.7mph /  7.6km/h 6mph /  9.7km/h 81.2% 0.00in /  0mm 188 W/m2
11:39 66.4 °F /  19.1 °C 60.2 °F /  15.7 °C 29.95in /  1014.1hPa WSW 5.2mph /  8.4km/h 6mph /  9.7km/h 80.5% 0.00in /  0mm 207 W/m2
11:44 66.5 °F /  19.2 °C 60.1 °F /  15.6 °C 29.94in /  1013.8hPa WSW 4.4mph /  7.1km/h 6mph /  9.7km/h 80% 0.00in /  0mm 209 W/m2
11:49 66.6 °F /  19.2 °C 60.3 °F /  15.7 °C 29.94in /  1013.8hPa WSW 5.1mph /  8.2km/h 5mph /  8km/h 80% 0.00in /  0mm 213 W/m2
11:54 66.8 °F /  19.3 °C 60.5 °F /  15.8 °C 29.94in /  1013.8hPa WSW 5.4mph /  8.7km/h 6mph /  9.7km/h 80% 0.00in /  0mm 231 W/m2
11:59 67 °F /  19.4 °C 60.7 °F /  15.9 °C 29.94in /  1013.8hPa WSW 5.7mph /  9.2km/h 6mph /  9.7km/h 80.2% 0.00in /  0mm 248 W/m2
12:04 67.3 °F /  19.6 °C 60.7 °F /  15.9 °C 29.94in /  1013.8hPa WSW 6.2mph /  10km/h 7mph /  11.3km/h 79.3% 0.00in /  0mm 276 W/m2
12:09 67.6 °F /  19.8 °C 60.6 °F /  15.9 °C 29.94in /  1013.8hPa WSW 6.1mph /  9.8km/h 7mph /  11.3km/h 78.4% 0.00in /  0mm 292 W/m2
12:14 67.8 °F /  19.9 °C 60.8 °F /  16 °C 29.94in /  1013.8hPa WSW 6.1mph /  9.8km/h 7mph /  11.3km/h 78.1% 0.00in /  0mm 294 W/m2
12:19 68.1 °F /  20.1 °C 60.7 °F /  15.9 °C 29.94in /  1013.8hPa WSW 5.2mph /  8.4km/h 7mph /  11.3km/h 77.3% 0.00in /  0mm 346 W/m2
12:24 68.4 °F /  20.2 °C 60.8 °F /  16 °C 29.93in /  1013.4hPa SW 5.9mph /  9.5km/h 6mph /  9.7km/h 76.6% 0.00in /  0mm 394 W/m2
12:29 68.8 °F /  20.4 °C 60.9 °F /  16.1 °C 29.93in /  1013.4hPa SW 7.4mph /  11.9km/h 7mph /  11.3km/h 75.9% 0.00in /  0mm 406 W/m2
12:34 69.4 °F /  20.8 °C 60.7 °F /  15.9 °C 29.93in /  1013.4hPa SW 7.2mph /  11.6km/h 8mph /  12.9km/h 74.1% 0.00in /  0mm 463 W/m2
12:39 69.9 °F /  21.1 °C 61.2 °F /  16.2 °C 29.93in /  1013.4hPa SW 7.5mph /  12.1km/h 8mph /  12.9km/h 74% 0.00in /  0mm 498 W/m2
12:44 70.3 °F /  21.3 °C 61.5 °F /  16.4 °C 29.93in /  1013.4hPa WSW 8mph /  12.9km/h 11mph /  17.7km/h 73.5% 0.00in /  0mm 307 W/m2
12:49 70.5 °F /  21.4 °C 61.4 °F /  16.3 °C 29.93in /  1013.4hPa WSW 7.8mph /  12.6km/h 8mph /  12.9km/h 73% 0.00in /  0mm 307 W/m2
12:54 70.5 °F /  21.4 °C 61.2 °F /  16.2 °C 29.93in /  1013.4hPa WSW 9.9mph /  15.9km/h 12mph /  19.3km/h 72.2% 0.00in /  0mm 157 W/m2
12:59 70.3 °F /  21.3 °C 60.9 °F /  16.1 °C 29.93in /  1013.4hPa SW 11.6mph /  18.7km/h 12mph /  19.3km/h 72.2% 0.00in /  0mm 114 W/m2
13:04 70.1 °F /  21.2 °C 60.6 °F /  15.9 °C 29.93in /  1013.4hPa SW 11.2mph /  18km/h 13mph /  20.9km/h 72% 0.00in /  0mm 108 W/m2
13:09 70 °F /  21.1 °C 60.5 °F /  15.8 °C 29.93in /  1013.4hPa SW 10.1mph /  16.3km/h 13mph /  20.9km/h 72% 0.00in /  0mm 100 W/m2
13:14 70 °F /  21.1 °C 60.5 °F /  15.8 °C 29.93in /  1013.4hPa SW 7.6mph /  12.2km/h 12mph /  19.3km/h 72% 0.00in /  0mm 91 W/m2
13:19 69.9 °F /  21.1 °C 60.1 °F /  15.6 °C 29.93in /  1013.4hPa SW 7.8mph /  12.6km/h 8mph /  12.9km/h 71.2% 0.00in /  0mm 95 W/m2
13:24 69.9 °F /  21.1 °C 60.5 °F /  15.8 °C 29.93in /  1013.4hPa SW 7.6mph /  12.2km/h 9mph /  14.5km/h 72.1% 0.00in /  0mm 91 W/m2
13:29 69.6 °F /  20.9 °C 60.8 °F /  16 °C 29.93in /  1013.4hPa WSW 9.5mph /  15.3km/h 9mph /  14.5km/h 73.5% 0.00in /  0mm 99 W/m2
13:34 68.9 °F /  20.5 °C 60.6 °F /  15.9 °C 29.93in /  1013.4hPa West 8.1mph /  13km/h 11mph /  17.7km/h 74.9% 0.00in /  0mm 117 W/m2
13:39 68.4 °F /  20.2 °C 60.4 °F /  15.8 °C 29.93in /  1013.4hPa West 9.8mph /  15.8km/h 9mph /  14.5km/h 75.7% 0.00in /  0mm 114 W/m2
13:44 68.1 °F /  20.1 °C 60.6 °F /  15.9 °C 29.93in /  1013.4hPa West 8.2mph /  13.2km/h 12mph /  19.3km/h 77% 0.00in /  0mm 112 W/m2
13:49 67.8 °F /  19.9 °C 60.5 °F /  15.8 °C 29.93in /  1013.4hPa WSW 5.5mph /  8.9km/h 8mph /  12.9km/h 77.5% 0.00in /  0mm 118 W/m2
13:54 67.8 °F /  19.9 °C 60.7 °F /  15.9 °C 29.93in /  1013.4hPa WSW 7mph /  11.3km/h 7mph /  11.3km/h 78% 0.00in /  0mm 138 W/m2
13:59 67.8 °F /  19.9 °C 60.6 °F /  15.9 °C 29.93in /  1013.4hPa WSW 8.6mph /  13.8km/h 9mph /  14.5km/h 77.8% 0.00in /  0mm 200 W/m2
14:04 67.8 °F /  19.9 °C 60.7 °F /  15.9 °C 29.93in /  1013.4hPa WSW 7.8mph /  12.6km/h 9mph /  14.5km/h 78% 0.00in /  0mm 197 W/m2
14:09 67.8 °F /  19.9 °C 60.7 °F /  15.9 °C 29.93in /  1013.4hPa SW 6.6mph /  10.6km/h 8mph /  12.9km/h 78% 0.00in /  0mm 173 W/m2
14:14 67.7 °F /  19.8 °C 60.4 °F /  15.8 °C 29.92in /  1013.1hPa SW 7.3mph /  11.7km/h 8mph /  12.9km/h 77.4% 0.00in /  0mm 117 W/m2
14:19 67.6 °F /  19.8 °C 60.5 °F /  15.8 °C 29.91in /  1012.8hPa SW 7.2mph /  11.6km/h 8mph /  12.9km/h 77.9% 0.00in /  0mm 98 W/m2
14:24 67.5 °F /  19.7 °C 60.4 °F /  15.8 °C 29.91in /  1012.8hPa SW 6.5mph /  10.5km/h 8mph /  12.9km/h 78% 0.00in /  0mm 89 W/m2
14:29 67.4 °F /  19.7 °C 60.3 °F /  15.7 °C 29.91in /  1012.8hPa WSW 4.9mph /  7.9km/h 7mph /  11.3km/h 78.2% 0.00in /  0mm 89 W/m2
14:34 67.3 °F /  19.6 °C 60.2 °F /  15.7 °C 29.91in /  1012.8hPa WSW 4.1mph /  6.6km/h 7mph /  11.3km/h 78.1% 0.00in /  0mm 77 W/m2
14:39 67 °F /  19.4 °C 60.2 °F /  15.7 °C 29.91in /  1012.8hPa SW 5.3mph /  8.5km/h 5mph /  8km/h 78.7% 0.00in /  0mm 93 W/m2
14:44 66.9 °F /  19.4 °C 60.3 °F /  15.7 °C 29.91in /  1012.8hPa SW 8.1mph /  13km/h 7.6mph /  12.2km/h 79.2% 0.00in /  0mm 93 W/m2
14:49 66.8 °F /  19.3 °C 60.3 °F /  15.7 °C 29.91in /  1012.8hPa WSW 9.3mph /  15km/h 10mph /  16.1km/h 79.5% 0.00in /  0mm 74 W/m2
14:54 66.7 °F /  19.3 °C 60.3 °F /  15.7 °C 29.91in /  1012.8hPa SW 7.9mph /  12.7km/h 10mph /  16.1km/h 80% 0.00in /  0mm 76 W/m2
14:59 66.6 °F /  19.2 °C 60.2 °F /  15.7 °C 29.91in /  1012.8hPa SW 9.2mph /  14.8km/h 8mph /  12.9km/h 80% 0.00in /  0mm 76 W/m2
15:04 66.5 °F /  19.2 °C 60.3 °F /  15.7 °C 29.91in /  1012.8hPa SW 8.1mph /  13km/h 11mph /  17.7km/h 80.5% 0.00in /  0mm 75 W/m2
15:09 66.4 °F /  19.1 °C 60.5 °F /  15.8 °C 29.91in /  1012.8hPa SW 8.5mph /  13.7km/h 8mph /  12.9km/h 81.4% 0.00in /  0mm 69 W/m2
15:14 66.1 °F /  18.9 °C 60.4 °F /  15.8 °C 29.91in /  1012.8hPa SW 9.9mph /  15.9km/h 10mph /  16.1km/h 81.8% 0.00in /  0mm 65 W/m2
15:19 65.9 °F /  18.8 °C 60.5 °F /  15.8 °C 29.91in /  1012.8hPa SW 8.4mph /  13.5km/h 12mph /  19.3km/h 82.8% 0.00in /  0mm 59 W/m2
15:24 65.8 °F /  18.8 °C 60.6 °F /  15.9 °C 29.91in /  1012.8hPa SW 7mph /  11.3km/h 9mph /  14.5km/h 83.4% 0.00in /  0mm 51 W/m2
15:29 65.7 °F /  18.7 °C 60.8 °F /  16 °C 29.91in /  1012.8hPa SW 5mph /  8km/h 7mph /  11.3km/h 84.5% 0.00in /  0mm 43 W/m2
15:34 65.4 °F /  18.6 °C 61 °F /  16.1 °C 29.91in /  1012.8hPa WSW 4mph /  6.4km/h 5mph /  8km/h 85.7% 0.01in /  0.25mm 39 W/m2
15:39 65 °F /  18.3 °C 61.4 °F /  16.3 °C 29.92in /  1013.1hPa WSW 4.3mph /  6.9km/h 5mph /  8km/h 88% 0.02in /  0.51mm 39 W/m2
15:44 64.8 °F /  18.2 °C 61.4 °F /  16.3 °C 29.92in /  1013.1hPa WSW 5.6mph /  9km/h 6mph /  9.7km/h 89% 0.02in /  0.51mm 34 W/m2
15:49 64.4 °F /  18 °C 61.2 °F /  16.2 °C 29.92in /  1013.1hPa WSW 5.9mph /  9.5km/h 6mph /  9.7km/h 89.2% 0.03in /  0.76mm 32 W/m2
15:54 64 °F /  17.8 °C 61.1 °F /  16.2 °C 29.92in /  1013.1hPa SW 5.6mph /  9km/h 7mph /  11.3km/h 90.2% 0.04in /  1.02mm 32 W/m2
15:59 63.8 °F /  17.7 °C 61.1 °F /  16.2 °C 29.92in /  1013.1hPa SW 5.1mph /  8.2km/h 6mph /  9.7km/h 91% 0.05in /  1.27mm 32 W/m2
16:04 63.5 °F /  17.5 °C 61.3 °F /  16.3 °C 29.92in /  1013.1hPa SW 6.1mph /  9.8km/h 7mph /  11.3km/h 92.6% 0.06in /  1.52mm 31 W/m2
16:09 63.2 °F /  17.3 °C 61.5 °F /  16.4 °C 29.92in /  1013.1hPa SW 6.8mph /  10.9km/h 7mph /  11.3km/h 93.9% 0.06in /  1.52mm 30 W/m2
16:14 62.9 °F /  17.2 °C 61.1 °F /  16.2 °C 29.93in /  1013.4hPa SW 7.7mph /  12.4km/h 8mph /  12.9km/h 94% 0.07in /  1.78mm 28 W/m2
16:19 62.5 °F /  16.9 °C 61.2 °F /  16.2 °C 29.93in /  1013.4hPa SW 7.7mph /  12.4km/h 10mph /  16.1km/h 95.4% 0.09in /  2.29mm 29 W/m2
16:24 62.3 °F /  16.8 °C 61.2 °F /  16.2 °C 29.92in /  1013.1hPa SW 6.7mph /  10.8km/h 10mph /  16.1km/h 96% 0.10in /  2.54mm 29 W/m2
16:29 62 °F /  16.7 °C 61.3 °F /  16.3 °C 29.92in /  1013.1hPa SW 6.7mph /  10.8km/h 7mph /  11.3km/h 97.5% 0.11in /  2.79mm 26 W/m2
16:34 61.8 °F /  16.6 °C 61.3 °F /  16.3 °C 29.92in /  1013.1hPa SSW 5.6mph /  9km/h 7mph /  11.3km/h 98.3% 0.12in /  3.05mm 21 W/m2
16:39 61.6 °F /  16.4 °C 61.3 °F /  16.3 °C 29.92in /  1013.1hPa SSW 4.4mph /  7.1km/h 6mph /  9.7km/h 99% 0.12in /  3.05mm 16 W/m2
16:44 61.4 °F /  16.3 °C 61.2 °F /  16.2 °C 29.92in /  1013.1hPa SSW 3.7mph /  6km/h 5mph /  8km/h 99% 0.12in /  3.05mm 18 W/m2
16:49 61.3 °F /  16.3 °C 61.1 °F /  16.2 °C 29.92in /  1013.1hPa SSW 3mph /  4.8km/h 5mph /  8km/h 99% 0.13in /  3.3mm 18 W/m2
16:54 61.3 °F /  16.3 °C 61 °F /  16.1 °C 29.92in /  1013.1hPa SW 3.8mph /  6.1km/h 4mph /  6.4km/h 99% 0.13in /  3.3mm 16 W/m2
16:59 61.2 °F /  16.2 °C 60.9 °F /  16.1 °C 29.92in /  1013.1hPa WSW 3.9mph /  6.3km/h 5mph /  8km/h 99% 0.15in /  3.81mm 14 W/m2
17:04 61 °F /  16.1 °C 60.7 °F /  15.9 °C 29.91in /  1012.8hPa WSW 4.5mph /  7.2km/h 6mph /  9.7km/h 99% 0.16in /  4.06mm 14 W/m2
17:09 61 °F /  16.1 °C 60.7 °F /  15.9 °C 29.92in /  1013.1hPa SW 5.1mph /  8.2km/h 5mph /  8km/h 99% 0.16in /  4.06mm 12 W/m2
17:14 61 °F /  16.1 °C 60.7 °F /  15.9 °C 29.91in /  1012.8hPa WSW 6.7mph /  10.8km/h 6.5mph /  10.5km/h 99% 0.16in /  4.06mm 13 W/m2
17:19 61 °F /  16.1 °C 60.7 °F /  15.9 °C 29.91in /  1012.8hPa West 8.7mph /  14km/h 9.4mph /  15.1km/h 99% 0.17in /  4.32mm 11 W/m2
17:24 61 °F /  16.1 °C 60.7 °F /  15.9 °C 29.91in /  1012.8hPa WNW 10.5mph /  16.9km/h 10.1mph /  16.3km/h 99% 0.16in /  4.06mm 11 W/m2
17:29 60.8 °F /  16 °C 60.6 °F /  15.9 °C 29.91in /  1012.8hPa WNW 11.2mph /  18km/h 12mph /  19.3km/h 99% 0.16in /  4.06mm 11 W/m2
17:34 60.8 °F /  16 °C 60.5 °F /  15.8 °C 29.91in /  1012.8hPa WNW 9.7mph /  15.6km/h 12mph /  19.3km/h 99% 0.17in /  4.32mm 10 W/m2
17:39 60.8 °F /  16 °C 60.5 °F /  15.8 °C 29.91in /  1012.8hPa WNW 8.9mph /  14.3km/h 11mph /  17.7km/h 99% 0.17in /  4.32mm 10 W/m2
17:44 60.8 °F /  16 °C 60.5 °F /  15.8 °C 29.91in /  1012.8hPa NW 4.9mph /  7.9km/h 10mph /  16.1km/h 99% 0.18in /  4.57mm 12 W/m2
17:49 60.7 °F /  15.9 °C 60.4 °F /  15.8 °C 29.91in /  1012.8hPa NW 9.2mph /  14.8km/h 9.6mph /  15.4km/h 99% 0.18in /  4.57mm 11 W/m2
17:54 60.6 °F /  15.9 °C 60.3 °F /  15.7 °C 29.90in /  1012.4hPa WNW 9.7mph /  15.6km/h 11mph /  17.7km/h 99% 0.20in /  5.08mm 6 W/m2
17:59 60.6 °F /  15.9 °C 60.3 °F /  15.7 °C 29.90in /  1012.4hPa WNW 8.6mph /  13.8km/h 11mph /  17.7km/h 99% 0.19in /  4.83mm 5 W/m2
18:04 60.6 °F /  15.9 °C 60.3 °F /  15.7 °C 29.90in /  1012.4hPa West 7.5mph /  12.1km/h 9mph /  14.5km/h 99% 0.18in /  4.57mm 4 W/m2
18:09 60.6 °F /  15.9 °C 60.3 °F /  15.7 °C 29.90in /  1012.4hPa West 9.7mph /  15.6km/h 9.4mph /  15.1km/h 99% 0.18in /  4.57mm 3 W/m2
18:14 60.6 °F /  15.9 °C 60.3 °F /  15.7 °C 29.90in /  1012.4hPa WSW 7.5mph /  12.1km/h 11mph /  17.7km/h 99% 0.18in /  4.57mm 3 W/m2
18:19 60.5 °F /  15.8 °C 60.3 °F /  15.7 °C 29.90in /  1012.4hPa SW 7.5mph /  12.1km/h 7mph /  11.3km/h 99% 0.16in /  4.06mm 2 W/m2
18:24 60.4 °F /  15.8 °C 60.2 °F /  15.7 °C 29.89in /  1012.1hPa SSW 6.8mph /  10.9km/h 8mph /  12.9km/h 99% 0.16in /  4.06mm 1 W/m2
18:29 60.4 °F /  15.8 °C 60.2 °F /  15.7 °C 29.89in /  1012.1hPa SW 7.7mph /  12.4km/h 8mph /  12.9km/h 99% 0.15in /  3.81mm 1 W/m2
18:34 60.4 °F /  15.8 °C 60.2 °F /  15.7 °C 29.89in /  1012.1hPa SW 8.9mph /  14.3km/h 9mph /  14.5km/h 99% 0.13in /  3.3mm 0 W/m2
18:39 60.3 °F /  15.7 °C 60.1 °F /  15.6 °C 29.88in /  1011.7hPa WSW 8.8mph /  14.2km/h 12mph /  19.3km/h 99% 0.12in /  3.05mm 0 W/m2
18:44 60.3 °F /  15.7 °C 60 °F /  15.6 °C 29.88in /  1011.7hPa West 7.6mph /  12.2km/h 10mph /  16.1km/h 99% 0.10in /  2.54mm 0 W/m2
18:49 60.3 °F /  15.7 °C 60 °F /  15.6 °C 29.88in /  1011.7hPa West 7.1mph /  11.4km/h 8mph /  12.9km/h 99% 0.08in /  2.03mm 0 W/m2
18:54 60.2 °F /  15.7 °C 59.9 °F /  15.5 °C 29.88in /  1011.7hPa West 4.9mph /  7.9km/h 8mph /  12.9km/h 99% 0.07in /  1.78mm 0 W/m2
18:59 60.1 °F /  15.6 °C 59.8 °F /  15.4 °C 29.88in /  1011.7hPa West 6mph /  9.7km/h 6mph /  9.7km/h 99% 0.05in /  1.27mm 0 W/m2
19:04 60.1 °F /  15.6 °C 59.8 °F /  15.4 °C 29.88in /  1011.7hPa WNW 5.8mph /  9.3km/h 7mph /  11.3km/h 99% 0.04in /  1.02mm 0 W/m2
19:09 59.9 °F /  15.5 °C 59.6 °F /  15.3 °C 29.88in /  1011.7hPa WNW 4.5mph /  7.2km/h 7mph /  11.3km/h 99% 0.03in /  0.76mm 0 W/m2
19:14 59.9 °F /  15.5 °C 59.6 °F /  15.3 °C 29.88in /  1011.7hPa West 3.6mph /  5.8km/h 5mph /  8km/h 99% 0.03in /  0.76mm 0 W/m2
19:19 59.9 °F /  15.5 °C 59.6 °F /  15.3 °C 29.88in /  1011.7hPa West 4.2mph /  6.8km/h 5mph /  8km/h 99% 0.02in /  0.51mm 0 W/m2
19:24 59.7 °F /  15.4 °C 59.4 °F /  15.2 °C 29.88in /  1011.7hPa WSW 3.9mph /  6.3km/h 5mph /  8km/h 99% 0.03in /  0.76mm 0 W/m2
19:29 59.7 °F /  15.4 °C 59.4 °F /  15.2 °C 29.88in /  1011.7hPa West 3.8mph /  6.1km/h 5mph /  8km/h 99% 0.03in /  0.76mm 0 W/m2
Knjazevac, Serbia
Compliments of Weather Underground - 2 mb